This is the latest recevied weather packets stored in our database for station/object DO1SC. If no packets are shown the sender has not sent any weather packets the latest 10 day(s).
| Time | Temp. | Humidity | Pressure | Rain* | Wind** | Luminosity | Snow |
|---|---|---|---|---|---|---|---|
| 1777453531 | 10° C | 36% | 1026.4 hPa | - | - | 557 W/m² | - |
| 1777452922 | 10° C | 35% | 1026.4 hPa | - | - | 518 W/m² | - |
| 1777451723 | 10° C | 33% | 1026.6 hPa | - | - | 353 W/m² | - |
| 1777451134 | 10° C | 34% | 1026.5 hPa | - | - | 472 W/m² | - |
| 1777450525 | 9.44° C | 35% | 1026.5 hPa | - | - | 452 W/m² | - |
| 1777449917 | 9.44° C | 35% | 1026.3 hPa | - | - | 425 W/m² | - |
| 1777449329 | 9.44° C | 37% | 1026.2 hPa | - | - | 403 W/m² | - |
| 1777448131 | 8.89° C | 39% | 1025.8 hPa | - | - | 371 W/m² | - |
| 1777447522 | 7.78° C | 43% | 1025.8 hPa | - | - | 346 W/m² | - |
| 1777446934 | 7.22° C | 47% | 1025.9 hPa | - | - | 316 W/m² | - |
| 1777446326 | 6.11° C | 49% | 1025.7 hPa | - | - | 281 W/m² | - |
| 1777445717 | 5.56° C | 52% | 1025.8 hPa | - | - | 247 W/m² | - |
| 1777445128 | 5° C | 55% | 1025.7 hPa | - | - | 207 W/m² | - |
| 1777444520 | 4.44° C | 57% | 1025.7 hPa | - | - | 144 W/m² | - |
| 1777443928 | 3.89° C | 59% | 1025.5 hPa | - | - | 95 W/m² | - |
| 1777443320 | 3.33° C | 62% | 1025.5 hPa | - | - | 54 W/m² | - |
| 1777442732 | 3.33° C | 63% | 1025.3 hPa | - | - | 33 W/m² | - |
| 1777442123 | 2.78° C | 63% | 1025.3 hPa | - | - | 31 W/m² | - |
| 1777441535 | 2.22° C | 64% | 1025.4 hPa | - | - | 33 W/m² | - |
| 1777440924 | 2.22° C | 64% | 1025.3 hPa | - | - | 31 W/m² | - |
| 1777440336 | 2.22° C | 65% | 1025.3 hPa | - | - | 28 W/m² | - |
| 1777439727 | 1.67° C | 65% | 1025.2 hPa | - | - | 25 W/m² | - |
| 1777439119 | 1.67° C | 65% | 1025.2 hPa | - | - | 26 W/m² | - |
| 1777438530 | 1.67° C | 65% | 1025 hPa | - | - | 21 W/m² | - |
| 1777437333 | 1.11° C | 65% | 1024.9 hPa | - | - | 16 W/m² | - |
* Rain since midnight (hover to see other rain measurements)
** Current wind speed in m/s (hover to see current wind gust speed)